createdAt,value
2019-05-14T00:01:22.178Z,952.25
2019-05-14T00:03:46.888Z,952.11
2019-05-14T00:06:13.198Z,952.00
2019-05-14T00:08:41.635Z,951.91
2019-05-14T00:11:05.831Z,951.87
2019-05-14T00:13:32.358Z,951.95
2019-05-14T00:15:58.484Z,951.94
2019-05-14T00:18:24.796Z,951.87
2019-05-14T00:20:51.305Z,951.85
2019-05-14T00:23:17.423Z,951.88
2019-05-14T00:25:43.747Z,951.96
2019-05-14T00:28:11.781Z,951.87
2019-05-14T00:30:36.382Z,951.74
2019-05-14T00:33:02.699Z,951.83
2019-05-14T00:35:29.024Z,951.75
2019-05-14T00:37:55.353Z,951.75
2019-05-14T00:40:22.161Z,951.67
2019-05-14T00:42:47.985Z,951.60
2019-05-14T00:45:14.290Z,951.76
2019-05-14T00:47:41.776Z,951.60
2019-05-14T00:50:06.924Z,951.64
2019-05-14T00:52:33.230Z,951.65
2019-05-14T00:55:01.102Z,951.71
2019-05-14T00:57:25.884Z,951.79
2019-05-14T00:59:52.341Z,951.72
2019-05-14T01:02:18.521Z,951.64
2019-05-14T01:04:44.823Z,951.64
2019-05-14T01:07:11.856Z,951.76
2019-05-14T01:09:37.517Z,951.76
2019-05-14T01:12:03.841Z,951.74
2019-05-14T01:14:31.693Z,951.88
2019-05-14T01:16:56.466Z,951.87
2019-05-14T01:19:22.791Z,951.73
2019-05-14T01:21:51.095Z,951.70
2019-05-14T01:24:15.418Z,951.68
2019-05-14T01:26:41.772Z,951.70
2019-05-14T01:29:08.057Z,951.83
2019-05-14T01:31:34.368Z,951.81
2019-05-14T01:34:02.160Z,951.61
2019-05-14T01:36:27.019Z,951.77
2019-05-14T01:38:53.327Z,951.76
2019-05-14T01:41:22.186Z,951.81
2019-05-14T01:43:46.092Z,951.89
2019-05-14T01:46:12.420Z,951.87
2019-05-14T01:48:38.731Z,951.75
2019-05-14T01:51:05.053Z,951.69
2019-05-14T01:53:31.520Z,951.77
2019-05-14T01:55:57.674Z,951.73
2019-05-14T01:58:24.017Z,951.76
2019-05-14T02:00:52.354Z,951.78
2019-05-14T02:03:16.651Z,951.71
2019-05-14T02:05:42.985Z,951.76
2019-05-14T02:08:09.298Z,951.68
2019-05-14T02:10:35.622Z,951.60
2019-05-14T02:13:02.175Z,951.52
2019-05-14T02:15:37.149Z,951.52
2019-05-14T02:17:54.581Z,951.62
2019-05-14T02:20:21.590Z,951.48
2019-05-14T02:22:47.211Z,951.42
2019-05-14T02:25:13.518Z,951.63
2019-05-14T02:27:41.367Z,951.47
2019-05-14T02:30:06.162Z,951.40
2019-05-14T02:32:32.488Z,951.45
2019-05-14T02:34:59.067Z,951.59
2019-05-14T02:37:25.118Z,951.48
2019-05-14T02:39:51.452Z,951.55
2019-05-14T02:42:19.696Z,951.62
2019-05-14T02:44:44.070Z,951.53
2019-05-14T02:47:10.456Z,951.59
2019-05-14T02:49:39.782Z,951.79
2019-05-14T02:52:03.072Z,951.75
2019-05-14T02:54:29.949Z,951.71
2019-05-14T02:56:55.717Z,951.70
2019-05-14T02:59:22.032Z,951.73
2019-05-14T03:01:50.207Z,951.62
2019-05-14T03:04:14.684Z,951.74
2019-05-14T03:06:40.996Z,951.85
2019-05-14T03:09:09.726Z,951.89
2019-05-14T03:11:33.634Z,951.83
2019-05-14T03:14:00.202Z,951.98
2019-05-14T03:16:34.596Z,952.04
2019-05-14T03:18:52.614Z,952.08
2019-05-14T03:21:19.871Z,952.07
2019-05-14T03:23:45.267Z,952.03
2019-05-14T03:26:11.573Z,952.17
2019-05-14T03:28:39.925Z,952.14
2019-05-14T03:31:04.588Z,952.11
2019-05-14T03:33:33.345Z,952.19
2019-05-14T03:36:06.206Z,952.20
2019-05-14T03:38:23.160Z,952.19
2019-05-14T03:40:49.755Z,952.20
2019-05-14T03:43:15.802Z,952.23
2019-05-14T03:45:42.140Z,952.29
2019-05-14T03:48:10.351Z,952.20
2019-05-14T03:50:34.805Z,952.12
2019-05-14T03:53:01.221Z,952.00
2019-05-14T03:55:29.271Z,951.98
2019-05-14T03:57:53.753Z,951.92
2019-05-14T04:00:20.207Z,951.82
2019-05-14T04:02:48.973Z,951.77
2019-05-14T04:05:12.698Z,951.73
2019-05-14T04:07:39.473Z,951.72
2019-05-14T04:10:05.324Z,951.63
2019-05-14T04:12:31.660Z,951.67
2019-05-14T04:14:59.616Z,951.71
2019-05-14T04:17:33.838Z,951.75
2019-05-14T04:19:50.569Z,951.80
2019-05-14T04:22:19.186Z,951.81
2019-05-14T04:24:43.191Z,951.75
2019-05-14T04:27:13.018Z,951.75
2019-05-14T04:29:39.411Z,951.76
2019-05-14T04:32:02.165Z,951.79
2019-05-14T04:34:29.990Z,951.76
2019-05-14T04:36:54.792Z,951.79
2019-05-14T04:39:21.110Z,951.75
2019-05-14T04:41:49.806Z,951.70
2019-05-14T04:44:13.739Z,951.74
2019-05-14T04:46:40.072Z,951.69
2019-05-14T04:49:09.323Z,951.65
2019-05-14T04:51:32.700Z,951.67
2019-05-14T04:53:59.875Z,951.77
2019-05-14T04:56:25.331Z,951.64
2019-05-14T04:58:51.639Z,951.68
2019-05-14T05:01:20.610Z,951.81
2019-05-14T05:03:44.266Z,951.75
2019-05-14T05:06:10.575Z,951.73
2019-05-14T05:08:39.544Z,951.74
2019-05-14T05:11:03.200Z,951.68
2019-05-14T05:13:29.652Z,951.87
2019-05-14T05:15:55.821Z,951.82
2019-05-14T05:18:22.152Z,951.61
2019-05-14T05:20:50.496Z,951.68
2019-05-14T05:23:14.784Z,951.63
2019-05-14T05:25:41.097Z,951.64
2019-05-14T05:28:08.883Z,951.59
2019-05-14T05:30:33.721Z,951.64
2019-05-14T05:33:00.042Z,951.64
2019-05-14T05:35:29.003Z,951.65
2019-05-14T05:37:52.668Z,951.69
2019-05-14T05:40:19.757Z,951.74
2019-05-14T05:42:45.296Z,951.77
2019-05-14T05:45:11.614Z,951.73
2019-05-14T05:47:39.134Z,951.70
2019-05-14T05:50:04.243Z,951.78
2019-05-14T05:52:30.561Z,951.80
2019-05-14T05:54:58.369Z,951.80
2019-05-14T05:57:23.185Z,951.65
2019-05-14T05:59:49.498Z,951.64
2019-05-14T06:02:18.385Z,951.65
2019-05-14T06:04:42.152Z,951.58
2019-05-14T06:07:08.952Z,951.61
2019-05-14T06:09:34.775Z,951.56
2019-05-14T06:12:01.104Z,951.45
2019-05-14T06:14:29.155Z,951.44
2019-05-14T06:16:53.754Z,951.43
2019-05-14T06:19:20.072Z,951.57
2019-05-14T06:21:48.742Z,951.41
2019-05-14T06:24:12.706Z,951.39
2019-05-14T06:26:39.045Z,951.48
2019-05-14T06:29:05.373Z,951.59
2019-05-14T06:31:31.705Z,951.45
2019-05-14T06:33:59.208Z,951.41
2019-05-14T06:36:24.356Z,951.38
2019-05-14T06:38:50.706Z,951.48
2019-05-14T06:41:19.093Z,951.44
2019-05-14T06:43:43.365Z,951.36
2019-05-14T06:46:09.671Z,951.39
2019-05-14T06:48:35.994Z,951.29
2019-05-14T06:51:02.328Z,951.06
2019-05-14T06:53:29.189Z,951.10
2019-05-14T06:55:54.990Z,951.03
2019-05-14T06:58:21.307Z,951.04
2019-05-14T07:00:49.519Z,951.05
2019-05-14T07:03:13.943Z,950.96
2019-05-14T07:05:40.311Z,950.96
2019-05-14T07:08:08.963Z,950.99
2019-05-14T07:10:32.963Z,951.04
2019-05-14T07:12:59.354Z,950.94
2019-05-14T07:15:25.597Z,950.93
2019-05-14T07:17:51.919Z,950.95
2019-05-14T07:20:18.878Z,950.95
2019-05-14T07:22:44.562Z,950.96
2019-05-14T07:25:10.897Z,950.92
2019-05-14T07:27:39.239Z,950.83
2019-05-14T07:30:03.535Z,950.85
2019-05-14T07:32:29.869Z,950.76
2019-05-14T07:34:56.183Z,950.74
2019-05-14T07:37:22.514Z,950.76
2019-05-14T07:39:48.966Z,950.87
2019-05-14T07:42:15.154Z,950.83
2019-05-14T07:44:41.466Z,950.93
2019-05-14T07:47:08.352Z,950.99
2019-05-14T07:49:34.103Z,951.02
2019-05-14T07:52:00.408Z,951.08
2019-05-14T07:54:28.267Z,951.04
2019-05-14T07:56:53.195Z,951.04
2019-05-14T07:59:19.395Z,951.03
2019-05-14T08:01:45.731Z,950.94
2019-05-14T08:04:12.210Z,950.99
2019-05-14T08:06:39.404Z,951.08
2019-05-14T08:09:04.696Z,951.02
2019-05-14T08:11:31.008Z,950.98
2019-05-14T08:13:58.497Z,951.19
2019-05-14T08:16:23.653Z,951.13
2019-05-14T08:18:49.974Z,951.08
2019-05-14T08:21:16.282Z,951.18
2019-05-14T08:23:42.616Z,950.97
2019-05-14T08:26:08.942Z,950.97
2019-05-14T08:28:35.258Z,951.01
2019-05-14T08:31:01.589Z,950.94
2019-05-14T08:33:29.062Z,950.79
2019-05-14T08:35:54.198Z,950.88
2019-05-14T08:38:20.619Z,950.81
2019-05-14T08:40:48.863Z,950.84
2019-05-14T08:43:13.285Z,950.72
2019-05-14T08:45:39.608Z,950.66
2019-05-14T08:48:05.918Z,950.74
2019-05-14T08:50:32.248Z,950.67
2019-05-14T08:52:58.553Z,950.73
2019-05-14T08:55:24.885Z,950.58
2019-05-14T08:57:51.287Z,950.62
2019-05-14T09:00:18.325Z,950.47
2019-05-14T09:02:43.853Z,950.61
2019-05-14T09:05:10.948Z,950.69
2019-05-14T09:07:38.421Z,950.60
2019-05-14T09:10:02.806Z,950.54
2019-05-14T09:12:29.139Z,950.62
2019-05-14T09:14:55.449Z,950.53
2019-05-14T09:17:21.784Z,950.40
2019-05-14T09:19:58.865Z,950.31
2019-05-14T09:22:14.418Z,950.35
2019-05-14T09:24:40.741Z,950.24
2019-05-14T09:27:08.396Z,950.19
2019-05-14T09:29:33.380Z,950.09
2019-05-14T09:31:59.700Z,950.05
2019-05-14T09:34:28.798Z,950.04
2019-05-14T09:36:52.345Z,949.99
2019-05-14T09:39:18.941Z,950.00
2019-05-14T09:41:44.984Z,950.00
2019-05-14T09:44:11.298Z,950.00
2019-05-14T09:46:38.425Z,950.08
2019-05-14T09:49:03.938Z,950.02
2019-05-14T09:51:30.268Z,950.13
2019-05-14T09:53:58.805Z,950.03
2019-05-14T09:56:22.912Z,950.07
2019-05-14T09:58:49.752Z,950.01
2019-05-14T10:01:15.551Z,949.86
2019-05-14T10:03:41.875Z,949.97
2019-05-14T10:06:09.793Z,949.93
2019-05-14T10:08:34.523Z,949.94
2019-05-14T10:11:00.866Z,949.92
2019-05-14T10:13:28.251Z,949.89
2019-05-14T10:15:53.489Z,949.89
2019-05-14T10:18:19.795Z,949.99
2019-05-14T10:20:49.080Z,949.90
2019-05-14T10:23:12.462Z,949.97
2019-05-14T10:25:42.242Z,949.87
2019-05-14T10:28:05.104Z,950.04
2019-05-14T10:30:31.424Z,950.09
2019-05-14T10:33:07.181Z,949.96
2019-05-14T10:35:24.189Z,949.85
2019-05-14T10:37:54.266Z,950.11
2019-05-14T10:40:18.354Z,949.84
2019-05-14T10:42:43.135Z,949.87
2019-05-14T10:45:12.646Z,949.87
2019-05-14T10:47:35.774Z,949.87
2019-05-14T10:50:02.100Z,949.80
2019-05-14T10:52:28.935Z,949.76
2019-05-14T10:54:56.194Z,949.67
2019-05-14T10:57:21.068Z,949.78
2019-05-14T10:59:47.406Z,949.76
2019-05-14T11:02:13.740Z,949.83
2019-05-14T11:04:40.051Z,949.75
2019-05-14T11:07:06.387Z,949.82
2019-05-14T11:09:32.698Z,949.79
2019-05-14T11:11:59.016Z,949.73
2019-05-14T11:14:25.350Z,949.94
2019-05-14T11:16:51.647Z,949.83
2019-05-14T11:19:18.851Z,949.77
2019-05-14T11:21:44.332Z,949.90
2019-05-14T11:24:10.660Z,949.86
2019-05-14T11:26:39.118Z,949.79
2019-05-14T11:29:03.286Z,949.83
2019-05-14T11:31:34.053Z,949.69
2019-05-14T11:33:55.941Z,949.83
2019-05-14T11:36:22.274Z,949.64
2019-05-14T11:38:50.681Z,949.68
2019-05-14T11:41:14.927Z,949.68
2019-05-14T11:43:41.266Z,949.58
2019-05-14T11:46:08.654Z,949.51
2019-05-14T11:48:33.916Z,949.38
2019-05-14T11:51:00.221Z,949.51
2019-05-14T11:53:26.550Z,949.64
2019-05-14T11:55:52.898Z,949.55
2019-05-14T11:58:21.312Z,949.57
2019-05-14T12:00:45.527Z,949.54
2019-05-14T12:03:12.010Z,949.78
2019-05-14T12:05:41.723Z,949.49
2019-05-14T12:08:05.186Z,949.83
2019-05-14T12:10:31.528Z,949.50
2019-05-14T12:12:58.522Z,949.49
2019-05-14T12:15:24.715Z,949.67
2019-05-14T12:17:51.562Z,949.46
2019-05-14T12:20:17.306Z,949.46
2019-05-14T12:22:43.698Z,949.50
2019-05-14T12:25:09.971Z,949.58
2019-05-14T12:27:38.651Z,949.11
2019-05-14T12:30:02.955Z,949.07
2019-05-14T12:32:29.617Z,948.95
2019-05-14T12:34:55.592Z,948.96
2019-05-14T12:37:21.893Z,949.01
2019-05-14T12:39:48.237Z,949.09
2019-05-14T12:42:14.564Z,949.23
2019-05-14T12:44:41.080Z,949.25
2019-05-14T12:47:09.502Z,949.29
2019-05-14T12:49:33.525Z,948.92
2019-05-14T12:52:16.355Z,948.85
2019-05-14T12:54:29.450Z,948.80
2019-05-14T12:56:52.489Z,948.81
2019-05-14T12:59:18.817Z,948.58
2019-05-14T13:01:45.121Z,948.80
2019-05-14T13:04:11.463Z,948.71
2019-05-14T13:06:40.072Z,948.65
2019-05-14T13:09:04.093Z,948.76
2019-05-14T13:11:30.507Z,948.75
2019-05-14T13:13:58.638Z,948.78
2019-05-14T13:16:23.143Z,948.79
2019-05-14T13:18:50.055Z,948.64
2019-05-14T13:21:15.819Z,948.76
2019-05-14T13:23:42.129Z,948.76
2019-05-14T13:26:10.469Z,948.77
2019-05-14T13:28:34.864Z,948.99
2019-05-14T13:31:01.170Z,948.71
2019-05-14T13:33:28.468Z,948.72
2019-05-14T13:35:53.773Z,948.85
2019-05-14T13:38:20.114Z,948.57
2019-05-14T13:40:48.890Z,948.70
2019-05-14T13:43:14.518Z,948.72
2019-05-14T13:45:39.285Z,948.57
2019-05-14T13:48:05.421Z,948.55
2019-05-14T13:50:31.728Z,948.41
2019-05-14T13:53:03.147Z,948.41
2019-05-14T13:55:26.476Z,948.41
2019-05-14T13:57:50.689Z,948.40
2019-05-14T14:00:19.620Z,948.41
2019-05-14T14:02:43.323Z,948.36
2019-05-14T14:05:09.643Z,948.31
2019-05-14T14:07:35.944Z,948.55
2019-05-14T14:10:02.275Z,948.28
2019-05-14T14:12:29.287Z,948.55
2019-05-14T14:14:54.914Z,948.22
2019-05-14T14:17:21.244Z,948.17
2019-05-14T14:19:48.248Z,948.39
2019-05-14T14:22:13.887Z,948.18
2019-05-14T14:24:40.200Z,948.19
2019-05-14T14:27:08.944Z,948.00
2019-05-14T14:29:32.871Z,948.26
2019-05-14T14:31:59.181Z,948.02
2019-05-14T14:34:25.552Z,948.05
2019-05-14T14:36:55.032Z,948.26
2019-05-14T14:39:19.198Z,948.34
2019-05-14T14:41:44.526Z,948.14
2019-05-14T14:44:10.852Z,947.98
2019-05-14T14:46:39.092Z,948.00
2019-05-14T14:49:03.488Z,947.90
2019-05-14T14:51:29.800Z,948.26
2019-05-14T14:54:02.776Z,948.29
2019-05-14T14:56:22.639Z,948.32
2019-05-14T14:58:49.508Z,948.03
2019-05-14T15:01:15.293Z,948.05
2019-05-14T15:03:41.593Z,947.99
2019-05-14T15:06:09.697Z,948.18
2019-05-14T15:08:34.250Z,947.93
2019-05-14T15:11:00.557Z,947.83
2019-05-14T15:13:26.897Z,947.90
2019-05-14T15:15:53.312Z,947.97
2019-05-14T15:18:19.626Z,947.68
2019-05-14T15:20:48.678Z,947.85
2019-05-14T15:23:12.562Z,947.58
2019-05-14T15:25:39.382Z,947.67
2019-05-14T15:28:05.680Z,947.58
2019-05-14T15:30:32.019Z,947.86
2019-05-14T15:32:59.761Z,947.63
2019-05-14T15:35:24.635Z,947.72
2019-05-14T15:37:50.964Z,947.50
2019-05-14T15:40:22.021Z,947.83
2019-05-14T15:42:43.664Z,947.70
2019-05-14T15:45:09.971Z,947.75
2019-05-14T15:47:38.690Z,947.70
2019-05-14T15:50:02.748Z,947.48
2019-05-14T15:52:29.438Z,947.51
2019-05-14T15:54:55.406Z,947.50
2019-05-14T15:57:21.723Z,947.49
2019-05-14T15:59:48.057Z,947.62
2019-05-14T16:02:14.383Z,947.65
2019-05-14T16:04:40.690Z,947.61
2019-05-14T16:07:09.287Z,947.67
2019-05-14T16:09:33.353Z,947.71
2019-05-14T16:11:59.796Z,947.69
2019-05-14T16:14:26.117Z,947.57
2019-05-14T16:16:52.456Z,947.52
2019-05-14T16:19:19.126Z,947.59
2019-05-14T16:21:45.095Z,947.54
2019-05-14T16:24:11.418Z,947.58
2019-05-14T16:26:37.724Z,947.58
2019-05-14T16:29:04.053Z,947.57
2019-05-14T16:31:31.675Z,947.61
2019-05-14T16:33:56.677Z,947.62
2019-05-14T16:36:23.011Z,947.65
2019-05-14T16:38:49.311Z,947.66
2019-05-14T16:41:18.249Z,947.66
2019-05-14T16:43:41.953Z,947.63
2019-05-14T16:46:09.636Z,947.66
2019-05-14T16:48:34.656Z,947.53
2019-05-14T16:51:00.992Z,947.50
2019-05-14T16:53:28.738Z,947.56
2019-05-14T16:55:53.744Z,947.63
2019-05-14T16:58:20.062Z,947.70
2019-05-14T17:00:46.362Z,947.79
2019-05-14T17:03:12.720Z,947.80
2019-05-14T17:05:39.035Z,947.69
2019-05-14T17:08:05.375Z,947.75
2019-05-14T17:10:32.068Z,947.69
2019-05-14T17:13:01.638Z,947.77
2019-05-14T17:15:24.736Z,947.79
2019-05-14T17:17:51.075Z,947.71
2019-05-14T17:20:19.403Z,947.77
2019-05-14T17:22:43.805Z,947.82
2019-05-14T17:25:10.133Z,947.76
2019-05-14T17:27:39.110Z,947.80
2019-05-14T17:30:02.825Z,947.73
2019-05-14T17:32:30.353Z,947.83
2019-05-14T17:34:55.485Z,947.81
2019-05-14T17:37:21.817Z,947.82
2019-05-14T17:39:48.987Z,947.83
2019-05-14T17:42:14.484Z,947.87
2019-05-14T17:44:40.803Z,947.94
2019-05-14T17:47:07.152Z,947.79
2019-05-14T17:49:33.478Z,947.77
2019-05-14T17:51:59.821Z,947.71
2019-05-14T17:54:28.241Z,947.69
2019-05-14T17:56:52.561Z,947.80
2019-05-14T17:59:19.274Z,947.70
2019-05-14T18:01:48.091Z,947.90
2019-05-14T18:04:14.559Z,947.59
2019-05-14T18:06:40.862Z,947.70
2019-05-14T18:09:09.107Z,947.98
2019-05-14T18:11:33.537Z,947.86
2019-05-14T18:13:59.865Z,947.77
2019-05-14T18:17:39.211Z,947.64
2019-05-14T18:20:03.191Z,947.70
2019-05-14T18:22:29.543Z,947.74
2019-05-14T18:24:55.864Z,947.73
2019-05-14T18:27:22.221Z,947.60
2019-05-14T18:29:48.909Z,947.70
2019-05-14T18:32:14.893Z,947.72
2019-05-14T18:34:41.217Z,947.73
2019-05-14T18:37:13.512Z,947.77
2019-05-14T18:39:34.023Z,947.83
2019-05-14T18:42:00.794Z,947.86
2019-05-14T18:44:28.459Z,947.84
2019-05-14T18:46:53.011Z,947.91
2019-05-14T18:49:19.708Z,947.88
2019-05-14T18:51:45.729Z,947.93
2019-05-14T18:54:12.007Z,947.94
2019-05-14T18:56:38.575Z,947.92
2019-05-14T18:59:04.682Z,947.95
2019-05-14T19:01:31.018Z,947.91
2019-05-14T19:03:58.939Z,948.00
2019-05-14T19:06:23.741Z,947.87
2019-05-14T19:08:50.116Z,947.85
2019-05-14T19:11:16.432Z,947.76
2019-05-14T19:13:42.727Z,947.69
2019-05-14T19:16:09.058Z,947.66
2019-05-14T19:18:35.416Z,947.70
2019-05-14T19:21:01.777Z,947.75
2019-05-14T19:23:28.983Z,947.65
2019-05-14T19:25:54.616Z,947.70
2019-05-14T19:28:20.986Z,947.70
2019-05-14T19:30:48.788Z,947.71
2019-05-14T19:33:13.643Z,947.62
2019-05-14T19:35:39.996Z,947.62
2019-05-14T19:38:08.767Z,947.64
2019-05-14T19:40:32.670Z,947.72
2019-05-14T19:42:59.371Z,947.80
2019-05-14T19:45:28.023Z,947.80
2019-05-14T19:47:52.314Z,947.76
2019-05-14T19:50:18.867Z,947.63
2019-05-14T19:52:44.975Z,947.53
2019-05-14T19:55:11.309Z,947.56
2019-05-14T19:57:38.435Z,947.63
2019-05-14T20:00:03.964Z,947.70
2019-05-14T20:02:30.354Z,947.64
2019-05-14T20:04:58.881Z,947.64
2019-05-14T20:07:22.977Z,947.59
2019-05-14T20:09:49.301Z,947.71
2019-05-14T20:12:18.063Z,947.84
2019-05-14T20:14:42.067Z,947.85
2019-05-14T20:17:08.920Z,947.80
2019-05-14T20:19:34.730Z,947.77
2019-05-14T20:22:03.487Z,947.75
2019-05-14T20:24:29.812Z,947.97
2019-05-14T20:27:05.854Z,948.19
2019-05-14T20:29:22.484Z,948.23
2019-05-14T20:31:48.807Z,948.21
2019-05-14T20:34:15.137Z,948.35
2019-05-14T20:36:41.465Z,948.51
2019-05-14T20:39:08.701Z,948.63
2019-05-14T20:41:34.129Z,948.67
2019-05-14T20:44:00.467Z,948.60
2019-05-14T20:46:28.531Z,948.56
2019-05-14T20:48:53.134Z,948.41
2019-05-14T20:51:19.464Z,948.50
2019-05-14T20:53:45.792Z,948.62
2019-05-14T20:56:12.117Z,948.63
2019-05-14T20:58:39.026Z,948.71
2019-05-14T21:01:04.874Z,948.79
2019-05-14T21:03:31.199Z,948.67
2019-05-14T21:05:58.328Z,948.73
2019-05-14T21:08:23.845Z,948.80
2019-05-14T21:10:50.176Z,949.03
2019-05-14T21:13:18.188Z,948.90
2019-05-14T21:15:42.828Z,948.76
2019-05-14T21:18:09.164Z,948.78
2019-05-14T21:20:35.487Z,948.85
2019-05-14T21:23:01.857Z,948.94
2019-05-14T21:25:29.575Z,949.13
2019-05-14T21:27:54.648Z,949.07
2019-05-14T21:30:22.008Z,948.88
2019-05-14T21:32:48.375Z,948.78
2019-05-14T21:35:13.638Z,948.92
2019-05-14T21:37:39.968Z,949.13
2019-05-14T21:40:06.290Z,948.87
2019-05-14T21:42:32.609Z,948.66
2019-05-14T21:44:58.948Z,948.79
2019-05-14T21:47:25.296Z,948.91
2019-05-14T21:49:51.633Z,948.86
2019-05-14T21:52:18.076Z,948.80
2019-05-14T21:54:44.288Z,948.79
2019-05-14T21:57:11.737Z,948.78
2019-05-14T21:59:38.873Z,948.65
2019-05-14T22:02:03.263Z,948.84
2019-05-14T22:04:29.592Z,948.98
2019-05-14T22:06:58.251Z,949.05
2019-05-14T22:09:22.239Z,949.22
2019-05-14T22:11:48.620Z,949.45
2019-05-14T22:14:14.898Z,949.36
2019-05-14T22:16:41.213Z,949.11
2019-05-14T22:19:08.467Z,949.13
2019-05-14T22:21:33.876Z,949.09
2019-05-14T22:24:00.208Z,949.12
2019-05-14T22:26:28.187Z,949.05
2019-05-14T22:28:52.858Z,948.97
2019-05-14T22:31:19.395Z,949.03
2019-05-14T22:33:45.499Z,948.90
2019-05-14T22:36:11.915Z,949.03
2019-05-14T22:38:38.873Z,949.03
2019-05-14T22:41:04.571Z,949.10
2019-05-14T22:43:30.936Z,949.15
2019-05-14T22:45:59.098Z,949.23
2019-05-14T22:48:23.596Z,949.17
2019-05-14T22:50:49.917Z,949.24
2019-05-14T22:53:16.238Z,949.27
2019-05-14T22:55:42.568Z,949.46
2019-05-14T22:58:24.566Z,949.46
2019-05-14T23:00:35.313Z,949.23
2019-05-14T23:03:01.544Z,949.22
2019-05-14T23:05:29.038Z,949.14
2019-05-14T23:07:54.203Z,949.09
2019-05-14T23:10:20.522Z,949.10
2019-05-14T23:12:48.724Z,949.15
2019-05-14T23:15:13.174Z,949.20
2019-05-14T23:17:39.495Z,949.28
2019-05-14T23:20:05.823Z,949.30
2019-05-14T23:22:32.147Z,949.30
2019-05-14T23:24:59.213Z,949.31
2019-05-14T23:27:24.823Z,949.25
2019-05-14T23:29:51.146Z,949.08
2019-05-14T23:32:19.091Z,949.10
2019-05-14T23:34:43.809Z,949.15
2019-05-14T23:37:10.133Z,949.32
2019-05-14T23:39:38.379Z,949.42
2019-05-14T23:42:02.788Z,949.42
2019-05-14T23:44:29.112Z,949.42
2019-05-14T23:46:55.434Z,949.36
2019-05-14T23:49:21.793Z,949.47
2019-05-14T23:51:48.099Z,949.57
2019-05-14T23:54:14.431Z,949.53
2019-05-14T23:56:40.754Z,949.41
2019-05-14T23:59:09.079Z,949.38
